Terminal Aerodrome Forecast
Issued by NWS Cleveland, OH

Home | Current Version | Previous Version | Text Only | Print | Product List | Glossary On
Versions: 1 2 3 4 5 6 7 8 9 10 11 12 13 14 15 16 17 18 19
439
FTUS41 KCLE 191326 AAB
TAFCAK
TAF AMD
KCAK 191326Z 1913/2012 24008KT P6SM SCT045 OVC120
     FM192000 28008KT P6SM -SHRA VCTS BKN040CB
     FM192300 30009KT P6SM SCT060
     FM200700 VRB03KT 5SM BR FEW200
      TEMPO 2009/2012 2SM BR=

USA.gov is the U.S. government's official web portal to all federal, state and local government web resources and services.